Tiempo atmosférico en la estación meteorológica de Vigo, Pontevedra (120 m.)



Fecha
DESCASC
Temp. máxima en grados centígrados (hora)
DESCASC
Temp. mínima en grados centígrados (hora)
DESCASC
Temp. media en grados centígrados
DESCASC
Racha de viento máxima en m/sg (hora)
DESCASC
Velocidad máxima media en intervalos de 10 minutos(hora)
DESCASC
Precipitaciones diarias en mm
DESCASC
Precipitaciones de 00:00 a 06:00 en mm
DESCASC
Precipitaciones de 06:00 a 12:00 en mm
DESCASC
Precipitaciones de 12:00 a 18:00 en mm
DESCASC
Precipitaciones de 18:00 a 24:00 en mm
DESCASC
29-03-2020 19.6 (16:20) 9.1 (09:00) 14.4 6.67 (23:50) 2.5 (23:00) 0 0 0 0 0
28-03-2020 17.6 (13:20) 8.2 (00:40) 12.9 6.39 (16:20) 2.5 (13:50) 0 0 0 0 0
27-03-2020 16.6 (13:10) 6 (07:40) 11.3 6.67 (11:20) 2.5 (00:30) 0 0 0 0 0
26-03-2020 17.8 (17:10) 9.4 (00:00) 13.6 8.33 (20:50) 4.44 (20:20) 0 0 0 0 0
25-03-2020 16 (12:40) 9.9 (00:00) 12.9 6.39 (15:10) 2.78 (14:10) 0 0 0 0 0
24-03-2020 21 (14:40) 10.6 (00:00) 15.8 5.28 (15:40) 2.5 (10:50) 0 0 0 0 0
23-03-2020 20.9 (16:00) 10.2 (00:00) 15.5 7.78 (18:30) 4.44 (18:30) 0 0 0 0 0
22-03-2020 18.6 (15:40) 10.7 (06:20) 14.7 4.72 (16:10) 2.22 (23:40) 0 0 0 0 0
21-03-2020 14.9 (12:30) 11.2 (00:00) 13 5.83 (13:30) 1.67 (12:20) 5 4.4 0 0 0.6
20-03-2020 14 (16:30) 11.7 (00:00) 12.8 3.33 (17:00) 1.67 (16:50) 8.6 0.2 1.6 1.8 5
19-03-2020 16.7 (11:10) 11.7 (00:00) 14.2 5 (13:00) 2.78 (13:40) 0 0 0 0 0
18-03-2020 23.1 (13:30) 12.3 (00:00) 17.7 4.72 (12:50) 2.22 (00:20) 0 0 0 0 0
17-03-2020 21 (16:30) 7.1 (00:00) 14 8.89 (01:00) 3.89 (01:00) 0 0 0 0 0
16-03-2020 13.9 (15:10) 6.1 (00:00) 10 13.06 (18:40) 6.67 (15:50) 0.2 0 0.2 0 0
15-03-2020 14.3 (11:30) 6.4 (00:00) 10.4 10.56 (17:50) 5 (17:50) 4.8 0 0 4.2 0.6
14-03-2020 18.4 (16:00) 5.6 (00:00) 12 4.72 (01:50) 2.22 (14:20) 0 0 0 0 0
13-03-2020 18 (16:40) 7.7 (08:10) 12.8 9.72 (15:30) 5.28 (15:40) 0 0 0 0 0
12-03-2020 17.6 (15:20) 10.2 (00:00) 13.9 11.67 (19:20) 6.67 (17:00) 0 0 0 0 0
11-03-2020 16.5 (15:10) 9 (00:00) 12.8 5 (15:40) 2.5 (15:40) 0 0 0 0 0
10-03-2020 15.3 (15:10) 7.9 (00:00) 11.6 5.56 (16:10) 2.5 (16:10) 0 0 0 0 0
09-03-2020 15.3 (14:50) 7.8 (00:00) 11.6 5 (14:50) 2.22 (15:50) 0 0 0 0 0
08-03-2020 14.8 (16:40) 8.7 (00:00) 11.8 6.67 (16:50) 2.5 (16:20) 3.2 0 3 0.2 0
07-03-2020 15.5 (16:20) 8.4 (00:00) 11.9 5 (14:10) 2.22 (14:20) 0 0 0 0 0
06-03-2020 13.5 (14:40) 9 (00:00) 11.3 10.56 (04:10) 4.72 (01:10) 1.6 1.2 0.4 0 0
05-03-2020 15.2 (00:00) 10.4 (00:00) 12.8 12.5 (03:00) 6.39 (01:50) 25 19.8 1.6 0.6 3
04-03-2020 16.8 (13:10) 13.4 (00:10) 15.1 10.28 (00:50) 5 (23:20) 1.4 0 1.2 0 0.2
03-03-2020 13.7 (11:10) 10.9 (00:00) 12.3 13.89 (06:30) 5.28 (05:30) 24.2 2.8 2.8 8.2 10.4
02-03-2020 13.9 (00:20) 9 (00:00) 11.4 14.72 (00:10) 6.94 (00:50) 5.8 2.6 1.6 1.4 0.2
01-03-2020 14.8 (11:30) 10.4 (00:00) 12.6 16.11 (22:00) 6.94 (21:20) 19.6 1.8 0.6 3.4 13.8
29-02-2020 13.8 (14:10) 10.4 (00:00) 12.1 14.17 (05:00) 7.22 (02:30) 13.6 12.2 0.4 0.2 0.8

Gráficas

Temp. máximas Temp. mínimas Temp. medias Precipitaciones Rachas de viento máximas Velocidades máximas media en intervalos de 10 minutos

Datos horarios

Fecha y hora oficial Temperatura (ºC) Velocidad del viento (km/h) Dirección del viento Racha (km/h) Dirección de racha Precipitación (mm) Presión (hPa) Tendencia (hPa) Humedad (%)
2020-03-29 23:00:00 13.7 9 Nordeste 24 Nordeste 0 -- -- 61
2020-03-29 22:00:00 14.2 4 Nordeste 9 Nordeste 0 -- -- 65
2020-03-29 21:00:00 15.1 0 Calma 10 Oeste 0 -- -- 59
2020-03-29 20:00:00 16.6 4 Oeste 14 Noroeste 0 -- -- 70
2020-03-29 19:00:00 18.9 6 Oeste 17 Oeste 0 -- -- 48
2020-03-29 18:00:00 18.8 6 Sudoeste 21 Oeste 0 -- -- 44
2020-03-29 17:00:00 19.6 6 Oeste 15 Sudoeste 0 -- -- 43
2020-03-29 16:00:00 19 6 Sudoeste 16 Oeste 0 -- -- 43
2020-03-29 15:00:00 19.2 6 Oeste 14 Oeste 0 -- -- 46
2020-03-29 14:00:00 18 6 Oeste 11 Oeste 0 -- -- 51
2020-03-29 13:00:00 17.3 3 Nordeste 8 Noroeste 0 -- -- 53
2020-03-29 12:00:00 16.2 0 Calma 6 Sudeste 0 -- -- 59
2020-03-29 11:00:00 13.4 2 Nordeste 9 Este 0 -- -- 64
2020-03-29 10:00:00 11.2 3 Nordeste 11 Este 0 -- -- 71
2020-03-29 09:00:00 9.1 3 Nordeste 14 Este 0 -- -- 79
2020-03-29 08:00:00 9.4 5 Este 11 Este 0 -- -- 74
2020-03-29 07:00:00 9.5 4 Este 10 Este 0 -- -- 74
2020-03-29 06:00:00 9.8 3 Este 9 Este 0 -- -- 72
2020-03-29 05:00:00 9.8 0 Calma 8 Nordeste 0 -- -- 73
2020-03-29 03:00:00 10.9 4 Nordeste 10 Este 0 -- -- 73
2020-03-29 01:00:00 10.4 4 Este 9 Este 0 -- -- 73
2020-03-29 00:00:00 9.7 0 Calma 3 Nordeste 0 -- -- 83
2020-03-28 23:00:00 10.1 0 Calma 5 Sudeste 0 -- -- 78
2020-03-28 22:00:00 11 2 Sur 4 Sudoeste 0 -- -- 79
2020-03-28 21:00:00 11.9 0 Calma 8 Oeste 0 -- -- 74
2020-03-28 20:00:00 12.8 0 Calma 12 Oeste 0 -- -- 70
2020-03-28 19:00:00 14.3 2 Noroeste 17 Sudoeste 0 -- -- 65
2020-03-28 18:00:00 15.8 6 Sudoeste 17 Sudoeste 0 -- -- 63
2020-03-28 17:00:00 16.5 5 Sudoeste 23 Sur 0 -- -- 57
2020-03-28 16:00:00 17 6 Sudoeste 18 Sudoeste 0 -- -- 53
2020-03-28 15:00:00 17.3 7 Sudoeste 20 Oeste 0 -- -- 50
2020-03-28 14:00:00 17.3 7 Oeste 20 Oeste 0 -- -- 47
2020-03-28 13:00:00 16.9 7 Oeste 15 Oeste 0 -- -- 47
2020-03-28 12:00:00 16 7 Norte 13 Norte 0 -- -- 46
2020-03-28 11:00:00 15.5 2 Este 8 Este 0 -- -- 54
2020-03-28 10:00:00 12.8 3 Nordeste 8 Este 0 -- -- 57
2020-03-28 09:00:00 11 2 Este 10 Este 0 -- -- 59
2020-03-28 08:00:00 9.8 3 Este 10 Este 0 -- -- 60
2020-03-28 07:00:00 9.5 2 Este 7 Nordeste 0 -- -- 64
2020-03-28 06:00:00 9.5 3 Nordeste 5 Nordeste 0 -- -- 70
2020-03-28 05:00:00 9.3 3 Nordeste 8 Nordeste 0 -- -- 69
2020-03-28 04:00:00 9 2 Norte 8 Norte 0 -- -- 70
2020-03-28 03:00:00 9 3 Nordeste 9 Este 0 -- -- 73
2020-03-28 02:00:00 8.8 3 Este 10 Este 0 -- -- 75
2020-03-28 01:00:00 8.3 4 Este 7 Este 0 -- -- 81
2020-03-28 00:00:00 8.5 0 Calma 6 Sudeste 0 -- -- 82
2020-03-27 23:00:00 8.7 2 Sudeste 5 Sudeste 0 -- -- 85
2020-03-27 22:00:00 9.3 2 Sur 6 Sudeste 0 -- -- 83
2020-03-27 21:00:00 10.1 0 Calma 5 Norte 0 -- -- 79
2020-03-27 20:00:00 11.2 0 Calma 10 Oeste 0 -- -- 74
2020-03-27 19:00:00 12.3 3 Sudoeste 12 Oeste 0 -- -- 68
2020-03-27 18:00:00 14.1 5 Norte 17 Noroeste 0 -- -- 60
2020-03-27 17:00:00 14.6 5 Sudoeste 23 Oeste 0 -- -- 60
2020-03-27 16:00:00 15.5 5 Sudoeste 22 Noroeste 0 -- -- 56
2020-03-27 15:00:00 15.3 7 Sudoeste 22 Sudoeste 0 -- -- 54
2020-03-27 14:00:00 16.1 7 Oeste 14 Sudoeste 0 -- -- 50
2020-03-27 13:00:00 16.2 4 Sur 17 Sudeste 0 -- -- 44
2020-03-27 12:00:00 14.5 5 Este 24 Este 0 -- -- 50
2020-03-27 11:00:00 12.7 5 Este 20 Este 0 -- -- 54
2020-03-27 10:00:00 10.8 4 Este 11 Nordeste 0 -- -- 61
2020-03-27 09:00:00 8.4 4 Nordeste 10 Nordeste 0 -- -- 68
2020-03-27 08:00:00 6.2 3 Nordeste 11 Este 0 -- -- 76
2020-03-27 07:00:00 6.2 3 Nordeste 8 Este 0 -- -- 75
2020-03-27 06:00:00 6.6 4 Este 12 Nordeste 0 -- -- 70
2020-03-27 05:00:00 7.3 5 Nordeste 19 Nordeste 0 -- -- 68
2020-03-27 04:00:00 7.4 6 Nordeste 13 Norte 0 -- -- 64
2020-03-27 03:00:00 7.6 4 Nordeste 15 Nordeste 0 -- -- 68
2020-03-27 02:00:00 7.9 5 Nordeste 15 Nordeste 0 -- -- 72
2020-03-27 01:00:00 8.5 5 Nordeste 19 Nordeste 0 -- -- 69
2020-03-27 00:00:00 9.4 6 Nordeste 23 Nordeste 0 -- -- 67
2020-03-26 23:00:00 10.9 8 Nordeste 20 Nordeste 0 -- -- 64
2020-03-26 22:00:00 12.1 8 Nordeste 26 Nordeste 0 -- -- 65
2020-03-26 21:00:00 13.5 7 Nordeste 30 Nordeste 0 -- -- 62
2020-03-26 20:00:00 14.4 8 Norte 20 Nordeste 0 -- -- 64
2020-03-26 19:00:00 16 5 Norte 15 Norte 0 -- -- 57
2020-03-26 18:00:00 17.5 3 Sur 15 Sudoeste 0 -- -- 54
2020-03-26 17:00:00 17.6 5 Sudoeste 16 Sur 0 -- -- 56
2020-03-26 16:00:00 17.1 5 Oeste 16 Oeste 0 -- -- 58
2020-03-26 15:00:00 16.1 8 Sudoeste 22 Oeste 0 -- -- 63
2020-03-26 14:00:00 16.2 5 Sudoeste 17 Sudoeste 0 -- -- 57
2020-03-26 13:00:00 14.4 6 Oeste 18 Sudoeste 0 -- -- 68
2020-03-26 12:00:00 13.6 6 Oeste 16 Oeste 0 -- -- 76
2020-03-26 11:00:00 12.8 4 Norte 10 Este 0 -- -- 76
2020-03-26 10:00:00 10.9 4 Sudeste 10 Sudeste 0 -- -- 86
2020-03-26 09:00:00 9.8 4 Nordeste 10 Nordeste 0 -- -- 91
2020-03-26 08:00:00 9.9 3 Nordeste 10 Nordeste 0 -- -- 92
2020-03-26 07:00:00 10 3 Nordeste 12 Nordeste 0 -- -- 94
2020-03-26 06:00:00 10.4 4 Nordeste 11 Nordeste 0 -- -- 93
2020-03-26 05:00:00 10.8 4 Nordeste 9 Nordeste 0 -- -- 94
2020-03-26 04:00:00 11.2 3 Nordeste 6 Nordeste 0 -- -- 95
2020-03-26 03:00:00 11.3 0 Calma 4 Noroeste 0 -- -- 95
2020-03-26 02:00:00 11.4 2 Norte 7 Noroeste 0 -- -- 96
2020-03-26 01:00:00 11.5 0 Calma 3 Sudoeste 0 -- -- 96
2020-03-26 00:00:00 11.1 0 Calma 6 Sudeste 0 -- -- 96
2020-03-25 23:00:00 10.7 3 Sur 6 Sudeste 0 -- -- 97
2020-03-25 22:00:00 10.3 0 Calma 3 Sudoeste 0 -- -- 96
2020-03-25 21:00:00 10.8 2 Sur 5 Sur 0 -- -- 94
2020-03-25 20:00:00 11.8 0 Calma 8 Sudoeste 0 -- -- 91
2020-03-25 19:00:00 12.4 3 Sudoeste 12 Oeste 0 -- -- 89
2020-03-25 18:00:00 12.6 3 Sudoeste 16 Oeste 0 -- -- 88
2020-03-25 17:00:00 13 6 Sudoeste 22 Oeste 0 -- -- 86
2020-03-25 16:00:00 14 8 Sudoeste 23 Oeste 0 -- -- 83
2020-03-25 15:00:00 15.2 8 Sudoeste 20 Oeste 0 -- -- 78
2020-03-25 14:00:00 15.1 6 Oeste 21 Sudoeste 0 -- -- 81
2020-03-25 13:00:00 15.3 9 Oeste 19 Oeste 0 -- -- 80
2020-03-25 12:00:00 15.2 5 Oeste 17 Oeste 0 -- -- 82
2020-03-25 11:00:00 14.8 3 Sur 10 Oeste 0 -- -- 78
2020-03-25 10:00:00 13.9 4 Oeste 9 Noroeste 0 -- -- 76
2020-03-25 09:00:00 11.4 0 Calma 3 Nordeste 0 -- -- 85
2020-03-25 08:00:00 10.4 0 Calma 4 Este 0 -- -- 83
2020-03-25 07:00:00 10.2 2 Sudeste 4 Sur 0 -- -- 85
2020-03-25 06:00:00 10.3 0 Calma 4 Nordeste 0 -- -- 86
2020-03-25 05:00:00 10.9 0 Calma 3 Nordeste 0 -- -- 82
2020-03-25 04:00:00 11.3 0 Calma 4 Norte 0 -- -- 79
2020-03-25 03:00:00 11.7 0 Calma 4 Nordeste 0 -- -- 80
2020-03-25 02:00:00 12 0 Calma 4 Norte 0 -- -- 79
2020-03-25 01:00:00 12.4 0 Calma 7 Nordeste 0 -- -- 77
2020-03-25 00:00:00 12.2 2 Nordeste 5 Este 0 -- -- 81
2020-03-24 23:00:00 12.6 2 Nordeste 4 Nordeste 0 -- -- 85
2020-03-24 22:00:00 13 3 Sur 5 Sur 0 -- -- 74
2020-03-24 21:00:00 13.7 2 Sudoeste 5 Sur 0 -- -- 72
2020-03-24 20:00:00 14.9 0 Calma 8 Sur 0 -- -- 69
2020-03-24 19:00:00 16.2 3 Sudoeste 12 Oeste 0 -- -- 64
2020-03-24 18:00:00 18.4 7 Oeste 18 Oeste 0 -- -- 62
2020-03-24 17:00:00 19.7 6 Sudoeste 15 Oeste 0 -- -- 54
2020-03-24 16:00:00 19.9 7 Sudoeste 19 Sudoeste 0 -- -- 51
2020-03-24 15:00:00 20.9 6 Sudoeste 17 Sudoeste 0 -- -- 50
2020-03-24 14:00:00 20.1 6 Sudoeste 15 Oeste 0 -- -- 53
2020-03-24 13:00:00 19.8 6 Noroeste 10 Nordeste 0 -- -- 48
2020-03-24 12:00:00 19.3 4 Nordeste 12 Este 0 -- -- 52
2020-03-24 11:00:00 17.2 6 Este 16 Este 0 -- -- 58
2020-03-24 10:00:00 15.6 6 Este 15 Este 0 -- -- 68
2020-03-24 09:00:00 12.7 7 Este 18 Sudeste 0 -- -- 74
2020-03-24 08:00:00 10.7 7 Este 16 Este 0 -- -- 83
2020-03-24 07:00:00 11 7 Este 15 Nordeste 0 -- -- 82
2020-03-24 06:00:00 10.9 6 Este 14 Este 0 -- -- 84
2020-03-24 05:00:00 10.8 3 Este 13 Este 0 -- -- 84
2020-03-24 04:00:00 11.3 5 Este 14 Este 0 -- -- 82
2020-03-24 03:00:00 11.4 6 Este 15 Este 0 -- -- 83
2020-03-24 02:00:00 11.7 8 Este 18 Este 0 -- -- 82
2020-03-24 01:00:00 11.9 5 Nordeste 15 Norte 0 -- -- 79
2020-03-24 00:00:00 12.1 6 Nordeste 14 Nordeste 0 -- -- 78
2020-03-23 23:00:00 12.5 6 Nordeste 19 Nordeste 0 -- -- 78
2020-03-23 22:00:00 13.1 8 Nordeste 20 Nordeste 0 -- -- 76
2020-03-23 21:00:00 14.2 11 Nordeste 26 Nordeste 0 -- -- 75
2020-03-23 20:00:00 15.3 9 Norte 19 Nordeste 0 -- -- 73
2020-03-23 19:00:00 17.2 8 Norte 28 Norte 0 -- -- 67
2020-03-23 18:00:00 18.9 13 Norte 25 Norte 0 -- -- 60
2020-03-23 17:00:00 20.1 8 Norte 18 Noroeste 0 -- -- 57
2020-03-23 16:00:00 20.9 4 Noroeste 14 Oeste 0 -- -- 55
2020-03-23 15:00:00 19.6 5 Oeste 17 Oeste 0 -- -- 61
2020-03-23 14:00:00 18.6 6 Noroeste 12 Nordeste 0 -- -- 55
2020-03-23 13:00:00 17.9 9 Norte 14 Norte 0 -- -- 60
2020-03-23 12:00:00 16.7 5 Nordeste 12 Nordeste 0 -- -- 66
2020-03-23 11:00:00 15.1 4 Nordeste 15 Este 0 -- -- 74
2020-03-23 10:00:00 13.3 10 Este 17 Este 0 -- -- 77
2020-03-23 09:00:00 11.7 4 Nordeste 12 Este 0 -- -- 85
2020-03-23 08:00:00 10.3 4 Nordeste 11 Nordeste 0 -- -- 90
2020-03-23 07:00:00 10.5 4 Este 11 Este 0 -- -- 89
2020-03-23 06:00:00 10.9 4 Este 12 Este 0 -- -- 87
2020-03-23 05:00:00 11.1 3 Nordeste 10 Este 0 -- -- 84
2020-03-23 04:00:00 11.3 4 Nordeste 10 Este 0 -- -- 84
2020-03-23 03:00:00 11.5 4 Nordeste 12 Norte 0 -- -- 83
2020-03-23 02:00:00 11.7 4 Nordeste 17 Este 0 -- -- 84
2020-03-23 01:00:00 12.2 6 Nordeste 17 Nordeste 0 -- -- 82
2020-03-23 00:00:00 13 6 Nordeste 16 Norte 0 -- -- 84
2020-03-22 23:00:00 13 6 Nordeste 13 Nordeste 0 -- -- 91
2020-03-22 22:00:00 12.7 0 Calma 5 Nordeste 0 -- -- 93
2020-03-22 21:00:00 13.1 0 Calma 4 Sur 0 -- -- 91
2020-03-22 20:00:00 13.8 0 Calma 8 Oeste 0 -- -- 88
2020-03-22 19:00:00 14.9 3 Sudoeste 14 Oeste 0 -- -- 82
2020-03-22 18:00:00 16.1 5 Sudoeste 13 Oeste 0 -- -- 77
2020-03-22 17:00:00 17 5 Sudoeste 17 Sudoeste 0 -- -- 74
2020-03-22 16:00:00 18.5 4 Norte 15 Oeste 0 -- -- 66
2020-03-22 15:00:00 18.1 5 Oeste 14 Noroeste 0 -- -- 69
2020-03-22 14:00:00 17.4 5 Noroeste 13 Norte 0 -- -- 70
2020-03-22 13:00:00 16 5 Norte 10 Noroeste 0 -- -- 74
2020-03-22 12:00:00 15.2 7 Norte 14 Norte 0 -- -- 75
2020-03-22 11:00:00 14.2 5 Nordeste 16 Nordeste 0 -- -- 78
2020-03-22 10:00:00 12.9 6 Nordeste 13 Nordeste 0 -- -- 84
2020-03-22 09:00:00 11.8 5 Nordeste 14 Nordeste 0 -- -- 89
2020-03-22 08:00:00 11 4 Nordeste 14 Nordeste 0 -- -- 92
2020-03-22 07:00:00 10.7 4 Nordeste 12 Nordeste 0 -- -- 93
2020-03-22 06:00:00 11 0 Calma 6 Norte 0 -- -- 99
2020-03-22 05:00:00 11 0 Calma 4 Norte 0 -- -- 100
2020-03-22 04:00:00 11 0 Calma 5 Noroeste 0 -- -- 99
2020-03-22 03:00:00 11.3 0 Calma 5 Noroeste 0 -- -- 99
2020-03-22 02:00:00 11.3 0 Calma 3 Sudeste 0 -- -- 99
2020-03-22 01:00:00 11.6 0 Calma 4 Noroeste 0 -- -- 99
2020-03-22 00:00:00 11.7 0 Calma 8 Norte 0.4 -- -- 98
2020-03-21 23:00:00 11.8 0 Calma 5 Sudoeste 0.2 -- -- 96
2020-03-21 22:00:00 11.8 2 Oeste 5 Oeste 0 -- -- 95
2020-03-21 21:00:00 12.1 0 Calma 5 Sudoeste 0 -- -- 93
2020-03-21 20:00:00 12.2 0 Calma 10 Oeste 0 -- -- 93
2020-03-21 19:00:00 12.2 4 Sudoeste 14 Sudoeste 0 -- -- 93
2020-03-21 18:00:00 12.7 3 Sudoeste 15 Oeste 0 -- -- 91
2020-03-21 17:00:00 13.2 4 Sudoeste 14 Sudoeste 0 -- -- 90
2020-03-21 16:00:00 13 4 Sudoeste 13 Sudoeste 0 -- -- 90
2020-03-21 15:00:00 13.4 5 Sudoeste 14 Sudoeste 0 -- -- 84
2020-03-21 14:00:00 13.8 5 Oeste 21 Oeste 0 -- -- 83
2020-03-21 13:00:00 14.4 6 Oeste 13 Oeste 0 -- -- 88
2020-03-21 12:00:00 13.7 6 Oeste 12 Oeste 0 -- -- 91
2020-03-21 11:00:00 13.6 2 Sudeste 8 Sudeste 0 -- -- 91
2020-03-21 10:00:00 12.4 3 Norte 5 Norte 0 -- -- 99
2020-03-21 09:00:00 11.9 0 Calma 4 Sur 0 -- -- 100
2020-03-21 08:00:00 11.3 0 Calma 8 Nordeste 0 -- -- 100
2020-03-21 07:00:00 11.4 2 Nordeste 10 Este 0 -- -- 100
2020-03-21 06:00:00 11.4 3 Nordeste 8 Este 0 -- -- 100
2020-03-21 05:00:00 11.3 0 Calma 5 Sur 0.4 -- -- 100
2020-03-21 04:00:00 11.5 0 Calma 4 Norte 0 -- -- 100
2020-03-21 03:00:00 11.5 0 Calma 7 Sudeste 2.4 -- -- 100
2020-03-21 02:00:00 11.8 2 Sur 5 Sur 1.4 -- -- 100
2020-03-21 01:00:00 11.8 0 Calma 3 Noroeste 0.2 -- -- 100
2020-03-21 00:00:00 11.8 2 Noroeste 3 Noroeste 0.4 -- -- 100
2020-03-20 23:00:00 11.8 0 Calma 5 Sudeste 2.6 -- -- 100
2020-03-20 22:00:00 11.9 0 Calma 5 Sudeste 1.8 -- -- 99
2020-03-20 21:00:00 12 0 Calma 4 Sudoeste 0.2 -- -- 98
2020-03-20 20:00:00 12.2 0 Calma 9 Sur 0 -- -- 97
2020-03-20 19:00:00 12.5 2 Sudoeste 5 Oeste 0 -- -- 97
2020-03-20 18:00:00 12.7 3 Sudoeste 12 Oeste 0 -- -- 96
2020-03-20 17:00:00 13.4 4 Oeste 12 Noroeste 0 -- -- 94
2020-03-20 16:00:00 13.1 4 Norte 7 Norte 0.2 -- -- 97
2020-03-20 15:00:00 12.5 3 Noroeste 7 Noroeste 0.4 -- -- 98
2020-03-20 14:00:00 12.4 3 Oeste 9 Noroeste 0.8 -- -- 98
2020-03-20 13:00:00 12.9 0 Calma 6 Norte 0.4 -- -- 97
2020-03-20 12:00:00 12.4 2 Norte 3 Norte 1 -- -- 96
2020-03-20 11:00:00 12.2 0 Calma 4 Sur 0.4 -- -- 95
2020-03-20 10:00:00 12.3 0 Calma 4 Sur 0 -- -- 93
2020-03-20 09:00:00 11.9 0 Calma 6 Sudoeste 0 -- -- 96
2020-03-20 08:00:00 11.8 0 Calma 7 Sudoeste 0 -- -- 96
2020-03-20 07:00:00 11.7 2 Sudoeste 10 Sudoeste 0.2 -- -- 96
2020-03-20 06:00:00 11.8 0 Calma 8 Sudoeste 0 -- -- 97
2020-03-20 05:00:00 11.8 0 Calma 9 Oeste 0 -- -- 97
2020-03-20 04:00:00 11.8 0 Calma 5 Oeste 0 -- -- 97
2020-03-20 03:00:00 11.9 2 Sudoeste 6 Noroeste 0 -- -- 97
2020-03-20 02:00:00 12.1 0 Calma 8 Nordeste 0.2 -- -- 97
2020-03-20 01:00:00 12 0 Calma 3 Sudeste 0 -- -- 95
2020-03-20 00:00:00 12.1 0 Calma 4 Sudeste 0 -- -- 95
2020-03-19 23:00:00 12.2 0 Calma 4 Oeste 0 -- -- 94
2020-03-19 22:00:00 12.2 2 Sudoeste 6 Sur 0 -- -- 93
2020-03-19 21:00:00 12.4 0 Calma 8 Sudoeste 0 -- -- 93
2020-03-19 20:00:00 12.5 3 Sudoeste 13 Noroeste 0 -- -- 93
2020-03-19 19:00:00 13.1 5 Sudoeste 16 Oeste 0 -- -- 90
2020-03-19 18:00:00 14.4 6 Sudoeste 15 Oeste 0 -- -- 88
2020-03-19 17:00:00 15.2 6 Sudoeste 16 Oeste 0 -- -- 84
2020-03-19 16:00:00 16.5 4 Oeste 13 Sudoeste 0 -- -- 80
2020-03-19 15:00:00 16.2 3 Sudoeste 15 Oeste 0 -- -- 79
2020-03-19 14:00:00 15.6 9 Oeste 17 Oeste 0 -- -- 81
2020-03-19 13:00:00 16.4 8 Oeste 18 Oeste 0 -- -- 78
2020-03-19 12:00:00 16.5 6 Oeste 11 Noroeste 0 -- -- 78
2020-03-19 11:00:00 16.4 0 Calma 5 Nordeste 0 -- -- 72
2020-03-19 10:00:00 14.8 0 Calma 4 Este 0 -- -- 80
2020-03-19 09:00:00 12.7 0 Calma 6 Este 0 -- -- 86
2020-03-19 08:00:00 11.8 0 Calma 5 Nordeste 0 -- -- 91
2020-03-19 07:00:00 11.9 3 Sudeste 7 Nordeste 0 -- -- 91
2020-03-19 06:00:00 12.5 0 Calma 4 Nordeste 0 -- -- 89
2020-03-19 05:00:00 13.7 0 Calma 3 Norte 0 -- -- 83
2020-03-19 04:00:00 13.9 3 Nordeste 6 Norte 0 -- -- 83
2020-03-19 03:00:00 14.2 2 Este 7 Este 0 -- -- 81
2020-03-19 02:00:00 13.8 3 Nordeste 6 Nordeste 0 -- -- 85
2020-03-19 01:00:00 13.7 0 Calma 4 Nordeste 0 -- -- 83
2020-03-19 00:00:00 13.9 0 Calma 3 Nordeste 0 -- -- 85
2020-03-18 23:00:00 14.4 0 Calma 2 Nordeste 0 -- -- 82
2020-03-18 22:00:00 14.7 0 Calma 2 Nordeste 0 -- -- 80
2020-03-18 21:00:00 15.6 0 Calma 2 Sur 0 -- -- 77
2020-03-18 20:00:00 16.7 0 Calma 4 Sur 0 -- -- 72
2020-03-18 19:00:00 18.2 0 Calma 8 Sudoeste 0 -- -- 65
2020-03-18 18:00:00 19.2 4 Sudoeste 11 Sudoeste 0 -- -- 60
2020-03-18 17:00:00 20 6 Sudoeste 13 Sudoeste 0 -- -- 59
2020-03-18 16:00:00 20.5 6 Sudoeste 14 Sudoeste 0 -- -- 62
2020-03-18 15:00:00 22.6 5 Sudoeste 12 Oeste 0 -- -- 58
2020-03-18 14:00:00 22.3 7 Oeste 14 Nordeste 0 -- -- 51
2020-03-18 13:00:00 22.4 6 Nordeste 17 Nordeste 0 -- -- 49
2020-03-18 12:00:00 20.3 5 Nordeste 12 Norte 0 -- -- 55
2020-03-18 11:00:00 18.8 4 Este 8 Este 0 -- -- 59
2020-03-18 10:00:00 16.5 4 Este 13 Este 0 -- -- 64
2020-03-18 09:00:00 14.2 6 Este 14 Este 0 -- -- 72
2020-03-18 08:00:00 12.4 3 Este 11 Este 0 -- -- 78
2020-03-18 07:00:00 12.6 4 Nordeste 12 Este 0 -- -- 78
2020-03-18 06:00:00 12.4 3 Este 8 Sudeste 0 -- -- 78
2020-03-18 05:00:00 13.3 3 Este 10 Este 0 -- -- 73
2020-03-18 04:00:00 13.2 2 Nordeste 9 Este 0 -- -- 73
2020-03-18 03:00:00 14 4 Este 11 Este 0 -- -- 71
2020-03-18 02:00:00 14 3 Este 9 Nordeste 0 -- -- 72
2020-03-18 01:00:00 14.7 4 Nordeste 17 Este 0 -- -- 71
2020-03-18 00:00:00 14.5 4 Este 9 Este 0 -- -- 73
2020-03-17 23:00:00 15 0 Calma 8 Este 0 -- -- 71
2020-03-17 22:00:00 15.4 3 Este 9 Sudeste 0 -- -- 71
2020-03-17 21:00:00 16.2 3 Nordeste 9 Este 0 -- -- 69
2020-03-17 20:00:00 17.2 2 Sur 8 Norte 0 -- -- 69
2020-03-17 19:00:00 19.3 3 Oeste 9 Sudoeste 0 -- -- 61
2020-03-17 18:00:00 20.7 3 Norte 10 Noroeste 0 -- -- 53
2020-03-17 17:00:00 20.8 3 Oeste 10 Oeste 0 -- -- 52
2020-03-17 16:00:00 20 4 Norte 11 Noroeste 0 -- -- 56
2020-03-17 15:00:00 19.2 4 Oeste 13 Oeste 0 -- -- 54
2020-03-17 14:00:00 17.8 4 Oeste 11 Noroeste 0 -- -- 54
2020-03-17 13:00:00 15.4 5 Oeste 13 Oeste 0 -- -- 56
2020-03-17 12:00:00 14.7 5 Norte 15 Este 0 -- -- 56
2020-03-17 11:00:00 13.2 7 Este 17 Este 0 -- -- 59
2020-03-17 10:00:00 11.3 6 Este 16 Este 0 -- -- 62
2020-03-17 09:00:00 8.8 6 Este 11 Este 0 -- -- 70
2020-03-17 08:00:00 7.1 3 Este 9 Este 0 -- -- 76
2020-03-17 07:00:00 7.9 4 Nordeste 18 Este 0 -- -- 73
2020-03-17 06:00:00 8.1 4 Este 15 Nordeste 0 -- -- 71
2020-03-17 05:00:00 8.2 6 Nordeste 22 Nordeste 0 -- -- 70
2020-03-17 04:00:00 8.4 5 Nordeste 21 Nordeste 0 -- -- 69
2020-03-17 03:00:00 8.6 8 Nordeste 24 Nordeste 0 -- -- 69
2020-03-17 02:00:00 8.5 5 Nordeste 30 Nordeste 0 -- -- 72
2020-03-17 01:00:00 9.2 14 Nordeste 32 Nordeste 0 -- -- 70
2020-03-17 00:00:00 9 12 Nordeste 32 Norte 0 -- -- 72
2020-03-16 23:00:00 9.3 9 Nordeste 33 Norte 0 -- -- 70
2020-03-16 22:00:00 9.8 11 Nordeste 31 Nordeste 0 -- -- 65
2020-03-16 21:00:00 10.4 14 Nordeste 44 Nordeste 0 -- -- 64
2020-03-16 20:00:00 11.2 12 Nordeste 42 Noroeste 0 -- -- 66
2020-03-16 19:00:00 11.6 19 Norte 47 Norte 0 -- -- 63
2020-03-16 18:00:00 13 21 Norte 39 Norte 0 -- -- 58
2020-03-16 17:00:00 13.2 9 Nordeste 31 Norte 0 -- -- 59
2020-03-16 16:00:00 12.8 23 Nordeste 44 Norte 0 -- -- 58
2020-03-16 15:00:00 13.5 12 Nordeste 37 Nordeste 0 -- -- 57
2020-03-16 14:00:00 13.1 17 Nordeste 39 Nordeste 0 -- -- 59
2020-03-16 13:00:00 13 13 Nordeste 37 Nordeste 0 -- -- 62
2020-03-16 12:00:00 11.6 14 Nordeste 33 Norte 0 -- -- 67
2020-03-16 11:00:00 10.2 15 Norte 30 Norte 0 -- -- 74
2020-03-16 10:00:00 9 9 Norte 17 Norte 0.2 -- -- 79
2020-03-16 09:00:00 7.5 6 Norte 12 Norte 0 -- -- 84
2020-03-16 08:00:00 6.4 4 Noroeste 18 Norte 0 -- -- 87
2020-03-16 07:00:00 6.5 9 Norte 17 Norte 0 -- -- 86
2020-03-16 06:00:00 6.5 2 Norte 9 Norte 0 -- -- 85
2020-03-16 05:00:00 6.2 2 Este 9 Este 0 -- -- 87
2020-03-16 04:00:00 6.4 3 Sur 8 Sur 0 -- -- 85
2020-03-16 03:00:00 6.2 2 Nordeste 10 Norte 0 -- -- 87
2020-03-16 02:00:00 6.5 2 Norte 10 Norte 0 -- -- 86
2020-03-16 01:00:00 6.4 0 Calma 8 Noroeste 0 -- -- 84
2020-03-16 00:00:00 6.4 0 Calma 12 Nordeste 0 -- -- 84
2020-03-15 23:00:00 6.8 4 Norte 12 Norte 0 -- -- 81
2020-03-15 22:00:00 7 3 Nordeste 33 Nordeste 0.2 -- -- 81
2020-03-15 21:00:00 8.2 11 Norte 28 Norte 0 -- -- 78
2020-03-15 20:00:00 8 8 Norte 19 Norte 0.4 -- -- 81
2020-03-15 19:00:00 8.2 0 Calma 17 Norte 0 -- -- 83
2020-03-15 18:00:00 8.5 9 Norte 38 Norte 0.4 -- -- 83
2020-03-15 17:00:00 9.3 5 Norte 17 Norte 0.6 -- -- 84
2020-03-15 16:00:00 8.7 5 Nordeste 29 Norte 0.6 -- -- 81
2020-03-15 15:00:00 9.4 6 Noroeste 21 Norte 0.2 -- -- 84
2020-03-15 14:00:00 9.2 5 Norte 26 Norte 0.8 -- -- 92
2020-03-15 13:00:00 9 11 Norte 32 Norte 1.6 -- -- 94
2020-03-15 12:00:00 13.5 10 Sudoeste 23 Sudoeste 0 -- -- 77
2020-03-15 11:00:00 14 3 Sudoeste 11 Sudoeste 0 -- -- 77
2020-03-15 10:00:00 12.1 2 Sur 9 Sudeste 0 -- -- 85
2020-03-15 09:00:00 10.1 3 Sudeste 6 Sudeste 0 -- -- 93
2020-03-15 08:00:00 9.8 2 Sudeste 8 Sudeste 0 -- -- 95
2020-03-15 07:00:00 9.5 3 Sur 6 Sudeste 0 -- -- 97
2020-03-15 06:00:00 9.1 2 Sur 5 Sur 0 -- -- 97
2020-03-15 05:00:00 9 0 Calma 5 Oeste 0 -- -- 98
2020-03-15 04:00:00 8.5 0 Calma 4 Noroeste 0 -- -- 98
2020-03-15 03:00:00 8.5 2 Sudeste 6 Sudeste 0 -- -- 96
2020-03-15 02:00:00 9.2 2 Nordeste 6 Nordeste 0 -- -- 97
2020-03-15 01:00:00 9.3 0 Calma 4 Nordeste 0 -- -- 96
2020-03-15 00:00:00 9.6 0 Calma 7 Sudeste 0 -- -- 95
2020-03-14 23:00:00 9.9 2 Sudeste 8 Sur 0 -- -- 94
2020-03-14 22:00:00 10.5 0 Calma 6 Sudeste 0 -- -- 93
2020-03-14 21:00:00 11.6 3 Sur 6 Sur 0 -- -- 91
2020-03-14 20:00:00 12.6 3 Oeste 8 Sudoeste 0 -- -- 84
2020-03-14 19:00:00 14.1 3 Sudoeste 12 Sudoeste 0 -- -- 79
2020-03-14 18:00:00 15.8 5 Sudoeste 17 Sudoeste 0 -- -- 70
2020-03-14 17:00:00 16.7 6 Oeste 16 Oeste 0 -- -- 66
2020-03-14 16:00:00 18.4 6 Oeste 17 Oeste 0 -- -- 59
2020-03-14 15:00:00 17.5 6 Oeste 15 Oeste 0 -- -- 56
2020-03-14 14:00:00 16.7 5 Noroeste 10 Noroeste 0 -- -- 52
2020-03-14 13:00:00 16 3 Nordeste 12 Este 0 -- -- 55
2020-03-14 12:00:00 14.2 5 Este 14 Sudeste 0 -- -- 58
2020-03-14 11:00:00 11.9 4 Nordeste 11 Nordeste 0 -- -- 60
2020-03-14 10:00:00 9.6 4 Nordeste 11 Nordeste 0 -- -- 68
2020-03-14 09:00:00 7.2 5 Nordeste 10 Norte 0 -- -- 77
2020-03-14 08:00:00 5.6 3 Este 5 Este 0 -- -- 85
2020-03-14 07:00:00 6 2 Sudeste 5 Nordeste 0 -- -- 84
2020-03-14 06:00:00 7.1 3 Nordeste 10 Nordeste 0 -- -- 76
2020-03-14 05:00:00 7.8 5 Nordeste 12 Nordeste 0 -- -- 77
2020-03-14 04:00:00 8 5 Nordeste 12 Nordeste 0 -- -- 83
2020-03-14 03:00:00 8.2 0 Calma 10 Nordeste 0 -- -- 84
2020-03-14 02:00:00 8.9 4 Nordeste 17 Este 0 -- -- 81
2020-03-14 01:00:00 9.7 3 Este 16 Nordeste 0 -- -- 78
2020-03-14 00:00:00 10.2 4 Norte 17 Norte 0 -- -- 79
2020-03-13 23:00:00 10.9 6 Nordeste 20 Nordeste 0 -- -- 78
2020-03-13 22:00:00 11.8 11 Nordeste 31 Nordeste 0 -- -- 76
2020-03-13 21:00:00 13.2 13 Nordeste 32 Nordeste 0 -- -- 67
2020-03-13 20:00:00 13.9 9 Nordeste 31 Norte 0 -- -- 65
2020-03-13 19:00:00 15.1 13 Norte 27 Norte 0 -- -- 62
2020-03-13 18:00:00 17 10 Norte 26 Norte 0 -- -- 60
2020-03-13 17:00:00 17.2 14 Norte 31 Norte 0 -- -- 60
2020-03-13 16:00:00 16.6 18 Norte 35 Norte 0 -- -- 62
2020-03-13 15:00:00 17.7 11 Norte 28 Norte 0 -- -- 59
2020-03-13 14:00:00 17.8 6 Nordeste 20 Norte 0 -- -- 60
2020-03-13 13:00:00 15.5 12 Norte 23 Norte 0 -- -- 65
2020-03-13 12:00:00 14.6 5 Norte 13 Norte 0 -- -- 68
2020-03-13 11:00:00 13.4 7 Norte 16 Norte 0 -- -- 70
2020-03-13 10:00:00 11.6 6 Nordeste 16 Nordeste 0 -- -- 77
2020-03-13 09:00:00 9.2 4 Nordeste 13 Nordeste 0 -- -- 83
2020-03-13 08:00:00 7.8 2 Este 9 Norte 0 -- -- 87
2020-03-13 07:00:00 8.9 4 Nordeste 13 Nordeste 0 -- -- 81
2020-03-13 06:00:00 9 7 Nordeste 16 Nordeste 0 -- -- 80
2020-03-13 05:00:00 9.1 5 Nordeste 17 Este 0 -- -- 80
2020-03-13 04:00:00 9.3 7 Nordeste 25 Nordeste 0 -- -- 79
2020-03-13 03:00:00 9.7 8 Nordeste 24 Nordeste 0 -- -- 78
2020-03-13 02:00:00 9.9 9 Nordeste 28 Nordeste 0 -- -- 78
2020-03-13 01:00:00 10.2 13 Nordeste 31 Nordeste 0 -- -- 77
2020-03-13 00:00:00 10.5 10 Nordeste 35 Nordeste 0 -- -- 76
2020-03-12 23:00:00 11.1 14 Nordeste 32 Nordeste 0 -- -- 75
2020-03-12 22:00:00 11.5 12 Nordeste 31 Nordeste 0 -- -- 76
2020-03-12 21:00:00 11.5 8 Nordeste 34 Norte 0 -- -- 79
2020-03-12 20:00:00 11.7 14 Nordeste 42 Nordeste 0 -- -- 80
2020-03-12 19:00:00 12.9 19 Nordeste 42 Nordeste 0 -- -- 76
2020-03-12 18:00:00 14.2 21 Norte 41 Norte 0 -- -- 72
2020-03-12 17:00:00 15.6 24 Norte 40 Norte 0 -- -- 67
2020-03-12 16:00:00 16.8 20 Norte 40 Norte 0 -- -- 64
2020-03-12 15:00:00 17 19 Norte 37 Norte 0 -- -- 61
2020-03-12 14:00:00 17 19 Norte 33 Norte 0 -- -- 63
2020-03-12 13:00:00 16.6 14 Norte 29 Norte 0 -- -- 63
2020-03-12 12:00:00 15.8 13 Norte 26 Norte 0 -- -- 69
2020-03-12 11:00:00 15.5 12 Nordeste 31 Nordeste 0 -- -- 70
2020-03-12 10:00:00 14.1 7 Nordeste 24 Nordeste 0 -- -- 75
2020-03-12 09:00:00 11.9 6 Nordeste 14 Nordeste 0 -- -- 83
2020-03-12 08:00:00 11.1 5 Nordeste 15 Nordeste 0 -- -- 88
2020-03-12 07:00:00 10.7 6 Nordeste 13 Norte 0 -- -- 96
2020-03-12 06:00:00 10.2 0 Calma 5 Norte 0 -- -- 99
2020-03-12 05:00:00 10.7 0 Calma 6 Sudeste 0 -- -- 99
2020-03-12 04:00:00 11.1 3 Sudeste 6 Sudeste 0 -- -- 98
2020-03-12 03:00:00 12.1 0 Calma 5 Oeste 0 -- -- 98
2020-03-12 02:00:00 12.5 0 Calma 5 Sudeste 0 -- -- 95
2020-03-12 01:00:00 13 0 Calma 4 Oeste 0 -- -- 94
2020-03-12 00:00:00 13.1 3 Oeste 6 Oeste 0 -- -- 94
2020-03-11 23:00:00 13.2 0 Calma 8 Noroeste 0 -- -- 93
2020-03-11 22:00:00 13.2 0 Calma 5 Sudoeste 0 -- -- 92
2020-03-11 21:00:00 13.2 3 Noroeste 8 Sudoeste 0 -- -- 91
2020-03-11 20:00:00 13.3 3 Sudoeste 9 Oeste 0 -- -- 91
2020-03-11 19:00:00 13.6 3 Sur 10 Norte 0 -- -- 90
2020-03-11 18:00:00 14.5 3 Sudoeste 10 Sudoeste 0 -- -- 88
2020-03-11 17:00:00 14.9 4 Sudoeste 15 Noroeste 0 -- -- 86
2020-03-11 16:00:00 16.2 6 Sudoeste 18 Sudoeste 0 -- -- 81
2020-03-11 15:00:00 16.4 7 Sudoeste 14 Oeste 0 -- -- 79
2020-03-11 14:00:00 15.2 8 Oeste 17 Oeste 0 -- -- 83
2020-03-11 13:00:00 14.2 6 Oeste 10 Noroeste 0 -- -- 86
2020-03-11 12:00:00 12.9 2 Norte 8 Nordeste 0 -- -- 90
2020-03-11 11:00:00 10.4 0 Calma 7 Sudeste 0 -- -- 100
2020-03-11 10:00:00 9.5 2 Este 9 Nordeste 0 -- -- 100
2020-03-11 09:00:00 9.1 2 Norte 7 Nordeste 0 -- -- 100
2020-03-11 08:00:00 9.1 3 Norte 7 Nordeste 0 -- -- 100
2020-03-11 07:00:00 9.3 2 Nordeste 8 Norte 0 -- -- 100
2020-03-11 06:00:00 9.9 2 Nordeste 6 Nordeste 0 -- -- 100
2020-03-11 05:00:00 10.1 0 Calma 3 Norte 0 -- -- 100
2020-03-11 04:00:00 10.4 0 Calma 4 Sur 0 -- -- 100
2020-03-11 03:00:00 10.5 0 Calma 5 Noroeste 0 -- -- 100
2020-03-11 02:00:00 10 0 Calma 3 Sudeste 0 -- -- 99
2020-03-11 01:00:00 9.9 0 Calma 3 Sudeste 0 -- -- 99
2020-03-11 00:00:00 10.2 0 Calma 4 Sudeste 0 -- -- 98
2020-03-10 23:00:00 10.5 0 Calma 2 Norte 0 -- -- 98
2020-03-10 22:00:00 10.7 0 Calma 2 Sudeste 0 -- -- 96
2020-03-10 21:00:00 11.4 0 Calma 4 Oeste 0 -- -- 94
2020-03-10 20:00:00 12.1 3 Oeste 8 Sudoeste 0 -- -- 90
2020-03-10 19:00:00 13 4 Sudoeste 15 Oeste 0 -- -- 86
2020-03-10 18:00:00 13.8 6 Oeste 16 Oeste 0 -- -- 82
2020-03-10 17:00:00 14.7 6 Oeste 20 Sudoeste 0 -- -- 81
2020-03-10 16:00:00 15 6 Oeste 16 Oeste 0 -- -- 77
2020-03-10 15:00:00 15.2 6 Sudoeste 15 Noroeste 0 -- -- 76
2020-03-10 14:00:00 14.8 8 Oeste 13 Noroeste 0 -- -- 77
2020-03-10 13:00:00 14.1 6 Sudoeste 17 Sudoeste 0 -- -- 80
2020-03-10 12:00:00 13.7 6 Oeste 14 Noroeste 0 -- -- 80
2020-03-10 11:00:00 13.6 2 Sur 8 Sudoeste 0 -- -- 81
2020-03-10 10:00:00 11 2 Este 6 Nordeste 0 -- -- 90
2020-03-10 09:00:00 8.6 3 Sudeste 8 Este 0 -- -- 97
2020-03-10 08:00:00 7.9 3 Este 9 Este 0 -- -- 98
2020-03-10 07:00:00 8 0 Calma 6 Sudeste 0 -- -- 98
2020-03-10 06:00:00 7.9 3 Sudeste 9 Sudeste 0 -- -- 98
2020-03-10 05:00:00 8 2 Nordeste 5 Sudeste 0 -- -- 98
2020-03-10 04:00:00 8 2 Sudeste 6 Sudeste 0 -- -- 98
2020-03-10 03:00:00 8.1 0 Calma 6 Sudeste 0 -- -- 97
2020-03-10 02:00:00 8.5 3 Sudeste 5 Sur 0 -- -- 96
2020-03-10 01:00:00 9 2 Sudeste 5 Sur 0 -- -- 95
2020-03-10 00:00:00 9.1 4 Sudeste 8 Sudeste 0 -- -- 94
2020-03-09 23:00:00 9.6 0 Calma 5 Sudeste 0 -- -- 92
2020-03-09 22:00:00 10.2 2 Sur 4 Sudoeste 0 -- -- 90
2020-03-09 21:00:00 10.9 2 Oeste 6 Oeste 0 -- -- 87
2020-03-09 20:00:00 11.7 0 Calma 6 Norte 0 -- -- 82
2020-03-09 19:00:00 12.7 2 Oeste 12 Sudoeste 0 -- -- 74
2020-03-09 18:00:00 13.9 5 Sudoeste 15 Sudoeste 0 -- -- 70
2020-03-09 17:00:00 15 4 Oeste 18 Sudoeste 0 -- -- 67
2020-03-09 16:00:00 15 6 Oeste 16 Oeste 0 -- -- 68
2020-03-09 15:00:00 14.9 5 Sudoeste 18 Oeste 0 -- -- 71
2020-03-09 14:00:00 14.6 5 Noroeste 14 Oeste 0 -- -- 73
2020-03-09 13:00:00 14.3 6 Noroeste 13 Oeste 0 -- -- 69
2020-03-09 12:00:00 13.5 3 Este 9 Este 0 -- -- 73
2020-03-09 11:00:00 12.6 5 Sudeste 9 Sudeste 0 -- -- 80
2020-03-09 10:00:00 10.1 3 Nordeste 6 Nordeste 0 -- -- 91
2020-03-09 09:00:00 8.3 4 Nordeste 7 Este 0 -- -- 99
2020-03-09 08:00:00 7.8 0 Calma 8 Sudeste 0 -- -- 99
2020-03-09 07:00:00 7.9 0 Calma 5 Sudeste 0 -- -- 98
2020-03-09 06:00:00 8.5 0 Calma 6 Sudeste 0 -- -- 97
2020-03-09 05:00:00 9.1 3 Sudeste 6 Sudeste 0 -- -- 96
2020-03-09 04:00:00 9.6 0 Calma 3 Sudeste 0 -- -- 97
2020-03-09 03:00:00 9.9 0 Calma 4 Sudeste 0 -- -- 95
2020-03-09 02:00:00 10.6 2 Noroeste 6 Norte 0 -- -- 92
2020-03-09 01:00:00 10.5 0 Calma 5 Sur 0 -- -- 93
2020-03-09 00:00:00 10.3 0 Calma 4 Sudeste 0 -- -- 93
2020-03-08 23:00:00 10.2 0 Calma 5 Oeste 0 -- -- 92
2020-03-08 22:00:00 10.7 0 Calma 8 Norte 0 -- -- 88
2020-03-08 21:00:00 11.4 4 Norte 10 Norte 0 -- -- 83
2020-03-08 20:00:00 11.8 0 Calma 16 Sur 0 -- -- 88
2020-03-08 19:00:00 12.8 3 Sudoeste 15 Oeste 0 -- -- 87
2020-03-08 18:00:00 13.9 6 Sudoeste 17 Sudoeste 0 -- -- 83
2020-03-08 17:00:00 14.6 8 Sudoeste 24 Sudoeste 0 -- -- 81
2020-03-08 16:00:00 13.5 9 Sudoeste 23 Oeste 0 -- -- 91
2020-03-08 15:00:00 12 3 Nordeste 10 Norte 0.2 -- -- 97
2020-03-08 14:00:00 12.1 6 Sur 14 Sur 0 -- -- 95
2020-03-08 13:00:00 11.5 6 Sur 14 Sur 0 -- -- 95
2020-03-08 12:00:00 10.8 5 Sur 11 Sur 0.4 -- -- 98
2020-03-08 11:00:00 10.2 3 Sur 12 Sur 0.4 -- -- 97
2020-03-08 10:00:00 9.9 4 Sur 12 Sur 1.6 -- -- 97
2020-03-08 09:00:00 10.2 2 Sur 15 Sur 0.6 -- -- 93
2020-03-08 08:00:00 10.4 4 Sur 10 Sur 0 -- -- 87
2020-03-08 07:00:00 10.3 3 Sur 10 Sur 0 -- -- 86
2020-03-08 06:00:00 10.3 3 Sur 10 Sur 0 -- -- 84
2020-03-08 05:00:00 10.2 5 Sur 10 Sur 0 -- -- 79
2020-03-08 04:00:00 9.8 4 Sur 8 Sur 0 -- -- 80
2020-03-08 03:00:00 9.5 3 Sur 9 Sur 0 -- -- 80
2020-03-08 02:00:00 8.9 3 Sur 8 Sudeste 0 -- -- 82
2020-03-08 01:00:00 9.2 3 Sur 9 Sudeste 0 -- -- 82
2020-03-08 00:00:00 9 2 Sur 8 Sudeste 0 -- -- 83
2020-03-07 23:00:00 9.5 0 Calma 7 Sudeste 0 -- -- 82
2020-03-07 22:00:00 9.8 3 Sudeste 4 Sudeste 0 -- -- 83
2020-03-07 21:00:00 10.4 0 Calma 8 Sudoeste 0 -- -- 82
2020-03-07 20:00:00 11.7 2 Sudoeste 9 Sudoeste 0 -- -- 72
2020-03-07 19:00:00 13 2 Sudoeste 18 Sudoeste 0 -- -- 74
2020-03-07 18:00:00 13.7 7 Sudoeste 18 Sudoeste 0 -- -- 68
2020-03-07 17:00:00 14.6 6 Sudoeste 17 Sudoeste 0 -- -- 70
2020-03-07 16:00:00 15.4 6 Oeste 16 Oeste 0 -- -- 65
2020-03-07 15:00:00 15.3 6 Sudoeste 18 Oeste 0 -- -- 62
2020-03-07 14:00:00 15 6 Sudoeste 16 Sudoeste 0 -- -- 62
2020-03-07 13:00:00 14.1 4 Oeste 11 Oeste 0 -- -- 63
2020-03-07 12:00:00 14.8 4 Este 10 Este 0 -- -- 56
2020-03-07 11:00:00 12.3 3 Norte 9 Norte 0 -- -- 73
2020-03-07 10:00:00 11.3 0 Calma 8 Este 0 -- -- 86
2020-03-07 09:00:00 9 4 Nordeste 10 Nordeste 0 -- -- 93
2020-03-07 08:00:00 8.5 3 Nordeste 8 Nordeste 0 -- -- 96
2020-03-07 07:00:00 8.5 2 Este 4 Nordeste 0 -- -- 96
2020-03-07 06:00:00 9.1 2 Nordeste 5 Sudeste 0 -- -- 95
2020-03-07 05:00:00 9.8 2 Sudeste 4 Sudeste 0 -- -- 92
2020-03-07 04:00:00 10.3 0 Calma 4 Este 0 -- -- 89
2020-03-07 03:00:00 10.4 0 Calma 5 Sudeste 0 -- -- 89
2020-03-07 02:00:00 10.4 2 Sur 5 Sudeste 0 -- -- 89
2020-03-07 01:00:00 10.5 0 Calma 3 Sur 0 -- -- 88
2020-03-07 00:00:00 10.6 0 Calma 11 Norte 0 -- -- 85
2020-03-06 23:00:00 10.8 4 Norte 15 Norte 0 -- -- 83
2020-03-06 22:00:00 11 6 Norte 15 Norte 0 -- -- 79
2020-03-06 21:00:00 11.4 5 Norte 11 Norte 0 -- -- 73
2020-03-06 20:00:00 11.6 5 Norte 15 Norte 0 -- -- 68
2020-03-06 19:00:00 12 5 Norte 18 Norte 0 -- -- 60
2020-03-06 18:00:00 12.4 9 Norte 27 Noroeste 0 -- -- 62
2020-03-06 17:00:00 13.1 9 Norte 27 Norte 0 -- -- 64
2020-03-06 16:00:00 12.4 11 Norte 23 Norte 0 -- -- 65
2020-03-06 15:00:00 13.5 7 Norte 26 Norte 0 -- -- 65
2020-03-06 14:00:00 12.1 14 Norte 30 Noroeste 0 -- -- 67
2020-03-06 13:00:00 12.5 10 Norte 21 Norte 0 -- -- 62
2020-03-06 12:00:00 11.3 6 Norte 30 Norte 0 -- -- 70
2020-03-06 11:00:00 10.8 7 Norte 28 Norte 0 -- -- 74
2020-03-06 10:00:00 10 14 Norte 30 Norte 0 -- -- 73
2020-03-06 09:00:00 9.2 10 Norte 26 Norte 0 -- -- 84
2020-03-06 08:00:00 9.2 9 Norte 34 Norte 0 -- -- 81
2020-03-06 07:00:00 9.5 15 Norte 33 Norte 0.4 -- -- 82
2020-03-06 06:00:00 9.4 12 Nordeste 30 Norte 0.4 -- -- 82
2020-03-06 05:00:00 9.6 14 Norte 38 Norte 0 -- -- 81
2020-03-06 04:00:00 9.9 8 Norte 32 Norte 0 -- -- 77
2020-03-06 03:00:00 10.4 12 Norte 34 Noroeste 0.2 -- -- 74
2020-03-06 02:00:00 10.4 13 Nordeste 36 Norte 0 -- -- 70
2020-03-06 01:00:00 10.2 9 Nordeste 30 Noroeste 0.6 -- -- 90
2020-03-06 00:00:00 10.5 6 Sudeste 27 Sudoeste 0.6 -- -- 91
2020-03-05 23:00:00 10.9 8 Sudoeste 36 Sudoeste 0.8 -- -- 95
2020-03-05 22:00:00 11 7 Sudoeste 26 Oeste 0.8 -- -- 92
2020-03-05 21:00:00 10.9 8 Sudoeste 20 Oeste 0.8 -- -- 92
2020-03-05 20:00:00 11.2 6 Sudoeste 19 Oeste 0 -- -- 84
2020-03-05 19:00:00 11.5 5 Sudoeste 17 Oeste 0 -- -- 88
2020-03-05 18:00:00 11.6 5 Sudoeste 19 Oeste 0 -- -- 87
2020-03-05 17:00:00 13.4 6 Nordeste 20 Nordeste 0 -- -- 71
2020-03-05 16:00:00 13.4 6 Nordeste 25 Norte 0 -- -- 74
2020-03-05 15:00:00 13.6 4 Nordeste 27 Noroeste 0 -- -- 77
2020-03-05 14:00:00 13.2 8 Norte 32 Norte 0.2 -- -- 79
2020-03-05 13:00:00 12.8 9 Norte 26 Norte 0.4 -- -- 81
2020-03-05 12:00:00 12.2 13 Norte 32 Norte 0 -- -- 87
2020-03-05 11:00:00 11.3 11 Norte 28 Noroeste 0.4 -- -- 94
2020-03-05 10:00:00 11.8 10 Sudoeste 36 Oeste 0.2 -- -- 88
2020-03-05 09:00:00 11.8 10 Sudoeste 30 Oeste 0 -- -- 84
2020-03-05 08:00:00 10.8 10 Sudoeste 30 Oeste 1 -- -- 92
2020-03-05 07:00:00 11.8 14 Sudoeste 35 Sudoeste 0 -- -- 87
2020-03-05 06:00:00 11.3 11 Sudoeste 29 Sudoeste 0.2 -- -- 97
2020-03-05 05:00:00 11.5 9 Sudoeste 33 Sudoeste 2.4 -- -- 99
2020-03-05 04:00:00 11.7 12 Sudoeste 32 Oeste 4.6 -- -- 100
2020-03-05 03:00:00 13.2 19 Sudoeste 45 Oeste 9.2 -- -- 96
2020-03-05 02:00:00 14.3 21 Sudoeste 42 Sudoeste 2.6 -- -- 95
2020-03-05 01:00:00 14.7 18 Sudoeste 37 Sur 0.8 -- -- 96
2020-03-05 00:00:00 15.2 17 Sudoeste 32 Sudoeste 0 -- -- 92
2020-03-04 23:00:00 15.1 17 Sudoeste 32 Sudoeste 0 -- -- 93
2020-03-04 22:00:00 14.8 12 Sudoeste 25 Oeste 0 -- -- 97
2020-03-04 21:00:00 14.6 14 Sudoeste 29 Sudoeste 0 -- -- 100
2020-03-04 20:00:00 14.8 12 Sudoeste 27 Sudoeste 0.2 -- -- 100
2020-03-04 19:00:00 14.8 13 Sudoeste 31 Sudoeste 0 -- -- 100
2020-03-04 18:00:00 14.9 15 Sudoeste 29 Sudoeste 0 -- -- 98
2020-03-04 17:00:00 15.7 12 Sudoeste 22 Sudoeste 0 -- -- 93
2020-03-04 16:00:00 16.2 12 Sudoeste 30 Sudoeste 0 -- -- 92
2020-03-04 15:00:00 15.9 11 Sudoeste 23 Sur 0 -- -- 93
2020-03-04 14:00:00 16.2 9 Sudoeste 30 Noroeste 0 -- -- 90
2020-03-04 13:00:00 16.7 11 Sudoeste 23 Sudoeste 0 -- -- 86
2020-03-04 12:00:00 15.5 8 Sudoeste 23 Sur 0 -- -- 92
2020-03-04 11:00:00 14.6 9 Sudoeste 23 Sudoeste 0 -- -- 96
2020-03-04 10:00:00 14 10 Sudoeste 29 Sur 1.2 -- -- 100
2020-03-04 09:00:00 13.8 9 Sudoeste 20 Sudoeste 0 -- -- 100
2020-03-04 08:00:00 13.6 9 Sudoeste 27 Sudoeste 0 -- -- 100
2020-03-04 07:00:00 13.5 7 Sudoeste 21 Sur 0 -- -- 100
2020-03-04 06:00:00 13.5 8 Sudoeste 24 Sudoeste 0 -- -- 100
2020-03-04 05:00:00 13.5 10 Sudoeste 25 Sudoeste 0 -- -- 100
2020-03-04 04:00:00 13.5 9 Sudoeste 27 Sudoeste 0 -- -- 100
2020-03-04 03:00:00 13.6 9 Sudoeste 24 Sudoeste 0 -- -- 100
2020-03-04 02:00:00 13.5 10 Sudoeste 25 Sudoeste 0 -- -- 100
2020-03-04 01:00:00 13.4 10 Sudoeste 37 Sur 0 -- -- 100
2020-03-04 00:00:00 13.5 9 Sudoeste 26 Sudoeste 0 -- -- 100
2020-03-03 23:00:00 13.5 10 Sudoeste 24 Sudoeste 0 -- -- 100
2020-03-03 22:00:00 13.5 8 Sudoeste 25 Sur 0.4 -- -- 100
2020-03-03 21:00:00 13.4 9 Sudoeste 24 Sudoeste 3.6 -- -- 100
2020-03-03 20:00:00 13.5 8 Sudoeste 22 Sudoeste 3.6 -- -- 100
2020-03-03 19:00:00 13.5 8 Sudoeste 19 Oeste 2.8 -- -- 100
2020-03-03 18:00:00 13.3 3 Sudoeste 10 Sur 2.4 -- -- 100
2020-03-03 17:00:00 13.3 0 Calma 13 Sudoeste 1.4 -- -- 100
2020-03-03 16:00:00 13.5 3 Sudoeste 14 Sudoeste 1.2 -- -- 100
2020-03-03 15:00:00 13.4 4 Sur 18 Sudoeste 1.4 -- -- 100
2020-03-03 14:00:00 13.7 6 Sudoeste 27 Oeste 0.6 -- -- 100
2020-03-03 13:00:00 13.6 10 Sudoeste 26 Sudoeste 1.2 -- -- 100
2020-03-03 12:00:00 13.7 12 Sudoeste 32 Oeste 0.6 -- -- 100
2020-03-03 11:00:00 13.6 12 Sudoeste 36 Oeste 0.2 -- -- 100
2020-03-03 10:00:00 13.5 14 Sudoeste 42 Oeste 0.4 -- -- 100
2020-03-03 09:00:00 13.6 17 Sudoeste 39 Sur 0.2 -- -- 100
2020-03-03 08:00:00 13.2 17 Sudoeste 44 Sudoeste 0.8 -- -- 100
2020-03-03 07:00:00 13 18 Sudoeste 50 Oeste 0.6 -- -- 96
2020-03-03 06:00:00 12.6 19 Sudoeste 40 Sudoeste 0.2 -- -- 95
2020-03-03 05:00:00 12.4 15 Sudoeste 38 Oeste 0.4 -- -- 91
2020-03-03 04:00:00 12.3 15 Sudoeste 29 Sudoeste 0 -- -- 89
2020-03-03 03:00:00 11.7 12 Sudoeste 21 Sur 0 -- -- 92
2020-03-03 02:00:00 11 9 Sudoeste 22 Sudoeste 1.4 -- -- 96
2020-03-03 01:00:00 11 6 Sudoeste 21 Sudoeste 0.8 -- -- 93
2020-03-03 00:00:00 10.9 8 Sudoeste 14 Sudoeste 0 -- -- 91
2020-03-02 23:00:00 10.6 6 Sudoeste 13 Sur 0 -- -- 91
2020-03-02 22:00:00 10.3 7 Sudoeste 15 Sudoeste 0 -- -- 91
2020-03-02 21:00:00 9.7 6 Sudoeste 24 Oeste 0.2 -- -- 95
2020-03-02 20:00:00 11 8 Sudoeste 20 Sudoeste 0 -- -- 78
2020-03-02 19:00:00 10.8 3 Sudoeste 16 Sudoeste 0 -- -- 83
2020-03-02 18:00:00 11.4 5 Sudoeste 15 Sudoeste 0 -- -- 72
2020-03-02 17:00:00 12 5 Sudoeste 18 Oeste 0.2 -- -- 69
2020-03-02 16:00:00 12.8 8 Sudoeste 18 Oeste 0 -- -- 70
2020-03-02 15:00:00 10.7 9 Norte 27 Oeste 1 -- -- 81
2020-03-02 14:00:00 12.3 10 Norte 31 Norte 0.2 -- -- 60
2020-03-02 13:00:00 12.2 10 Norte 34 Norte 0 -- -- 63
2020-03-02 12:00:00 9.8 8 Norte 40 Norte 0.8 -- -- 76
2020-03-02 11:00:00 11.1 13 Norte 35 Norte 0 -- -- 71
2020-03-02 10:00:00 10.6 9 Norte 31 Norte 0 -- -- 79
2020-03-02 09:00:00 9.4 11 Norte 33 Noroeste 0 -- -- 85
2020-03-02 08:00:00 9.7 7 Este 25 Noroeste 0 -- -- 85
2020-03-02 07:00:00 9 7 Nordeste 33 Norte 0.8 -- -- 92
2020-03-02 06:00:00 9.8 8 Este 25 Norte 1.4 -- -- 88
2020-03-02 05:00:00 10.8 7 Este 27 Este 0 -- -- 84
2020-03-02 04:00:00 11.1 8 Sudeste 24 Noroeste 0 -- -- 89
2020-03-02 03:00:00 11.1 8 Este 32 Norte 0.2 -- -- 91
2020-03-02 02:00:00 12.1 10 Sudeste 52 Sudoeste 1 -- -- 95
2020-03-02 01:00:00 13.7 25 Sudoeste 53 Sudoeste 0 -- -- 99
2020-03-02 00:00:00 13.8 23 Sudoeste 58 Sur 0 -- -- 97
2020-03-01 23:00:00 13.7 25 Sudoeste 55 Sur 1.4 -- -- 99
2020-03-01 22:00:00 13.7 24 Sudoeste 58 Oeste 3.2 -- -- 99
2020-03-01 21:00:00 13.7 21 Sudoeste 39 Oeste 3.6 -- -- 99
2020-03-01 20:00:00 11.7 14 Sudoeste 27 Sur 2.2 -- -- 96
2020-03-01 19:00:00 11.7 13 Sudoeste 24 Sur 3.4 -- -- 95
2020-03-01 18:00:00 12.3 10 Sudoeste 28 Sudoeste 3.2 -- -- 94
2020-03-01 17:00:00 13.5 16 Sudoeste 30 Sudoeste 0.2 -- -- 83
2020-03-01 16:00:00 14.7 12 Sudoeste 28 Sudoeste 0 -- -- 76
2020-03-01 15:00:00 14.4 10 Sudoeste 32 Sudoeste 0 -- -- 73
2020-03-01 14:00:00 14.6 12 Sudoeste 22 Sudoeste 0 -- -- 71
2020-03-01 13:00:00 14.1 8 Sudoeste 22 Sudoeste 0 -- -- 74
2020-03-01 12:00:00 14.1 9 Sudoeste 22 Sudoeste 0 -- -- 73
2020-03-01 11:00:00 14.2 8 Sudoeste 22 Sudoeste 0 -- -- 77
2020-03-01 10:00:00 12.8 9 Sudoeste 26 Sudoeste 0 -- -- 79
2020-03-01 09:00:00 12.4 5 Sudoeste 21 Sudoeste 0.6 -- -- 81
2020-03-01 08:00:00 12.8 9 Sudoeste 35 Sudoeste 0 -- -- 89
2020-03-01 07:00:00 13 12 Sudoeste 33 Sudoeste 0 -- -- 90
2020-03-01 06:00:00 13 9 Sudoeste 33 Sudoeste 0 -- -- 93
2020-03-01 05:00:00 13 17 Sudoeste 57 Sudoeste 0.8 -- -- 97
2020-03-01 04:00:00 12.1 19 Sudoeste 39 Oeste 0.6 -- -- 95
2020-03-01 03:00:00 11.6 15 Sudoeste 31 Sudoeste 0.4 -- -- 92
2020-03-01 02:00:00 11.3 15 Sudoeste 32 Sudoeste 0 -- -- 92
2020-03-01 01:00:00 10.8 9 Sudoeste 26 Sudoeste 0 -- -- 89
2020-03-01 00:00:00 10.4 8 Sudoeste 21 Sudoeste 0.2 -- -- 94
2020-02-29 23:00:00 10.8 8 Sudoeste 15 Sudoeste 0 -- -- 86
2020-02-29 22:00:00 10.4 7 Sudoeste 23 Oeste 0.2 -- -- 91
2020-02-29 21:00:00 11 4 Sudoeste 20 Sur 0 -- -- 87
2020-02-29 20:00:00 10.5 6 Sudoeste 26 Sudoeste 0.4 -- -- 88
2020-02-29 19:00:00 11.5 9 Sudoeste 24 Oeste 0 -- -- 82
2020-02-29 18:00:00 11.2 7 Sudoeste 36 Oeste 0.2 -- -- 90
2020-02-29 17:00:00 12.9 11 Sudoeste 35 Oeste 0 -- -- 68
2020-02-29 16:00:00 12.9 11 Sudoeste 36 Sudoeste 0 -- -- 68
2020-02-29 15:00:00 13 11 Sudoeste 26 Sudoeste 0 -- -- 71
2020-02-29 14:00:00 13.4 11 Sudoeste 27 Sudoeste 0 -- -- 70
2020-02-29 13:00:00 12.7 7 Sudoeste 28 Oeste 0 -- -- 78
2020-02-29 12:00:00 13 11 Sudoeste 32 Oeste 0 -- -- 73
2020-02-29 11:00:00 12.5 11 Sudoeste 29 Oeste 0 -- -- 73
2020-02-29 10:00:00 11.8 9 Sudoeste 27 Oeste 0 -- -- 78
2020-02-29 09:00:00 11.8 14 Sudoeste 36 Sudoeste 0 -- -- 73
2020-02-29 08:00:00 11.8 11 Sudoeste 35 Oeste 0 -- -- 82
2020-02-29 07:00:00 11.6 9 Sudoeste 26 Sudoeste 0.4 -- -- 98
2020-02-29 06:00:00 11.2 9 Sudoeste 37 Oeste 2.8 -- -- 99
2020-02-29 05:00:00 13.1 20 Sudoeste 51 Sudoeste 3.2 -- -- 97
2020-02-29 04:00:00 13 22 Sudoeste 41 Sudoeste 3.2 -- -- 96
2020-02-29 03:00:00 12.9 25 Sudoeste 48 Sur 1.2 -- -- 94
2020-02-29 02:00:00 12.4 21 Sudoeste 41 Sudoeste 0 -- -- 93
2020-02-29 01:00:00 11.8 16 Sur 35 Sur 1.8 -- -- 95
2020-02-29 00:00:00 12.4 19 Sudoeste 33 Sur 0 -- -- 85